Time;durP1;ratioP1;P1;durP2;ratioP2;P2;SDS_P1;SDS_P2;PMS_P1;PMS_P2;Temp;Humidity;BMP_temperature;BMP_pressure;BME280_temperature;BME280_humidity;BME280_pressure;Samples;Min_cycle;Max_cycle;Signal;HPM_P1;HPM_P2
2021/09/26 00:01:03;;;;;;;6.30;3.70;;;;;;;22.33;54.47;101308.06;5035037;28;20045;-62
2021/09/26 00:03:29;;;;;;;5.93;4.00;;;;;;;22.31;54.48;101310.03;5034624;28;20826;-61
2021/09/26 00:05:54;;;;;;;5.82;3.92;;;;;;;22.31;54.45;101307.38;5034515;28;20295;-63
2021/09/26 00:08:19;;;;;;;6.80;4.10;;;;;;;22.31;54.19;101299.41;5034422;28;20021;-62
2021/09/26 00:10:44;;;;;;;6.82;4.07;;;;;;;22.30;54.25;101297.72;5035210;28;20313;-62
2021/09/26 00:13:10;;;;;;;7.20;4.10;;;;;;;22.27;54.22;101298.84;5034739;28;20112;-62
2021/09/26 00:15:35;;;;;;;5.93;4.22;;;;;;;22.28;53.93;101295.19;5034539;28;20140;-62
2021/09/26 00:18:05;;;;;;;5.40;3.40;;;;;;;22.27;54.40;101300.63;5034812;28;20437;-62
2021/09/26 00:20:31;;;;;;;6.10;4.05;;;;;;;22.26;54.15;101299.81;5034611;28;20034;-62
2021/09/26 00:22:56;;;;;;;6.07;3.42;;;;;;;22.25;54.31;101294.63;5034361;28;20080;-63
2021/09/26 00:25:22;;;;;;;5.53;3.30;;;;;;;22.24;54.47;101292.97;5034810;28;20084;-61
2021/09/26 00:27:49;;;;;;;6.30;3.75;;;;;;;22.25;54.31;101289.31;5034094;28;20030;-62
2021/09/26 00:30:15;;;;;;;7.30;4.07;;;;;;;22.25;54.32;101294.63;5034390;28;20026;-62
2021/09/26 00:32:44;;;;;;;5.88;3.63;;;;;;;22.26;54.23;101291.00;5035062;28;20385;-63
2021/09/26 00:35:11;;;;;;;6.95;4.00;;;;;;;22.24;54.15;101293.81;5034095;28;20025;-62
2021/09/26 00:37:38;;;;;;;5.75;3.47;;;;;;;22.25;54.25;101298.13;5034256;28;20366;-62
2021/09/26 00:40:07;;;;;;;6.55;3.95;;;;;;;22.24;54.10;101300.94;5034237;28;20527;-62
2021/09/26 00:42:33;;;;;;;5.47;3.75;;;;;;;22.22;54.37;101303.75;5034058;28;20029;-62
2021/09/26 00:44:58;;;;;;;5.95;3.88;;;;;;;22.22;54.41;101308.19;5033548;28;20030;-62
2021/09/26 00:47:27;;;;;;;6.45;4.00;;;;;;;22.21;54.53;101304.69;5034235;28;20032;-63
2021/09/26 00:49:53;;;;;;;6.53;4.25;;;;;;;22.21;54.40;101303.88;5033785;28;20479;-63
2021/09/26 00:52:19;;;;;;;5.43;3.40;;;;;;;22.22;54.39;101303.75;5033834;28;20026;-63
2021/09/26 00:54:44;;;;;;;6.68;3.40;;;;;;;22.21;54.26;101298.56;5033998;28;20076;-61
2021/09/26 00:57:10;;;;;;;5.70;3.75;;;;;;;22.19;54.19;101298.72;5033938;28;20060;-63
2021/09/26 00:59:36;;;;;;;5.93;3.55;;;;;;;22.19;54.16;101296.06;5032460;28;20030;-62
2021/09/26 01:02:01;;;;;;;6.00;3.70;;;;;;;22.19;54.21;101292.53;5033510;28;20017;-62
2021/09/26 01:04:29;;;;;;;6.00;3.63;;;;;;;22.18;54.17;101296.19;5033662;28;20038;-62
2021/09/26 01:07:02;;;;;;;5.72;3.40;;;;;;;22.16;54.25;101293.69;5033450;28;20037;-62
2021/09/26 01:09:45;;;;;;;5.22;3.45;;;;;;;22.18;54.13;101289.06;5033918;28;20037;-62
2021/09/26 01:12:36;;;;;;;7.10;3.78;;;;;;;22.19;54.14;101295.19;5033092;28;20052;-63
2021/09/26 01:15:11;;;;;;;5.60;3.63;;;;;;;22.17;54.10;101294.50;5033422;28;20487;-62
2021/09/26 01:17:46;;;;;;;5.25;3.50;;;;;;;22.17;54.16;101294.50;5033649;28;20049;-62
2021/09/26 01:20:23;;;;;;;5.50;3.95;;;;;;;22.17;53.94;101283.88;5033205;28;20028;-62
2021/09/26 01:23:18;;;;;;;6.55;3.80;;;;;;;22.16;54.22;101279.53;5033396;28;20045;-62
2021/09/26 01:26:13;;;;;;;6.28;4.05;;;;;;;22.15;54.20;101280.53;5033500;28;20037;-63
2021/09/26 01:29:01;;;;;;;5.80;3.50;;;;;;;22.16;54.16;101276.88;5033516;28;20493;-62
2021/09/26 01:31:44;;;;;;;6.53;3.65;;;;;;;22.15;54.29;101272.59;5033078;28;20069;-62
2021/09/26 01:34:39;;;;;;;4.95;3.25;;;;;;;22.15;54.23;101268.09;5032731;28;20034;-62
2021/09/26 01:37:27;;;;;;;6.25;3.47;;;;;;;22.14;54.00;101261.09;5031737;28;20051;-63
2021/09/26 01:40:01;;;;;;;6.13;3.47;;;;;;;22.13;54.27;101266.56;5032333;28;20457;-62
2021/09/26 01:42:35;;;;;;;5.88;3.60;;;;;;;22.12;54.04;101263.06;5033123;28;20546;-62
2021/09/26 01:45:27;;;;;;;5.78;3.50;;;;;;;22.13;54.04;101264.75;5032942;28;20029;-62
2021/09/26 01:48:06;;;;;;;5.82;3.70;;;;;;;22.12;54.03;101260.41;5032354;28;20048;-62
2021/09/26 01:50:33;;;;;;;6.15;3.75;;;;;;;22.14;53.85;101262.94;5033142;28;20091;-62
2021/09/26 01:53:01;;;;;;;5.38;3.53;;;;;;;22.12;54.05;101251.63;5032995;28;20018;-62
2021/09/26 01:55:28;;;;;;;5.63;3.40;;;;;;;22.12;53.96;101251.63;5032715;28;20052;-62
2021/09/26 01:57:57;;;;;;;7.00;3.90;;;;;;;22.12;54.02;101256.94;5032480;28;20135;-62
2021/09/26 02:00:29;;;;;;;5.97;3.65;;;;;;;22.12;53.95;101255.09;5032952;28;20036;-62
2021/09/26 02:02:55;;;;;;;6.10;3.70;;;;;;;22.13;53.93;101253.28;5031896;28;20040;-63
2021/09/26 02:05:21;;;;;;;6.13;3.90;;;;;;;22.13;54.14;101255.94;5032846;28;20025;-63
2021/09/26 02:07:48;;;;;;;6.38;3.70;;;;;;;22.10;54.22;101257.06;5032892;28;20036;-62
2021/09/26 02:10:17;;;;;;;5.68;3.50;;;;;;;22.11;54.00;101258.72;5032392;28;20126;-62
2021/09/26 02:12:42;;;;;;;5.63;3.92;;;;;;;22.11;53.85;101258.72;5032460;28;20172;-63
2021/09/26 02:15:12;;;;;;;6.28;4.20;;;;;;;22.12;54.04;101247.16;5031780;28;20123;-62
2021/09/26 02:17:41;;;;;;;4.90;2.92;;;;;;;22.11;54.01;101240.16;5032411;28;20036;-63
2021/09/26 02:20:10;;;;;;;5.63;3.60;;;;;;;22.11;53.92;101245.47;5031908;28;20045;-61
2021/09/26 02:22:38;;;;;;;5.95;3.60;;;;;;;22.10;53.96;101249.94;5031926;28;20381;-62
2021/09/26 02:25:07;;;;;;;6.30;3.63;;;;;;;22.10;53.97;101246.47;5032231;28;20065;-63
2021/09/26 02:27:34;;;;;;;5.97;3.83;;;;;;;22.09;53.82;101245.59;5032181;28;20042;-63
2021/09/26 02:29:59;;;;;;;5.35;3.42;;;;;;;22.09;54.25;101248.25;5032092;28;20022;-62
2021/09/26 02:32:27;;;;;;;5.20;3.40;;;;;;;22.07;53.88;101247.56;5032456;28;20017;-62
2021/09/26 02:34:53;;;;;;;5.25;3.25;;;;;;;22.08;53.97;101251.09;5031732;28;20045;-61
2021/09/26 02:37:18;;;;;;;5.28;3.28;;;;;;;22.10;53.96;101263.22;5032210;28;20036;-62
2021/09/26 02:39:46;;;;;;;5.20;3.25;;;;;;;22.11;53.85;101266.69;5032074;28;20033;-62
2021/09/26 02:42:19;;;;;;;7.28;3.72;;;;;;;22.10;53.97;101265.03;5031949;28;20029;-63
2021/09/26 02:45:03;;;;;;;5.22;3.38;;;;;;;22.10;53.99;101265.03;5031975;28;20033;-62
2021/09/26 02:47:33;;;;;;;5.90;3.43;;;;;;;22.09;53.95;101261.53;5032191;28;20032;-62
2021/09/26 02:49:58;;;;;;;6.65;4.45;;;;;;;22.10;53.86;101265.88;5032228;28;20336;-62
2021/09/26 02:52:24;;;;;;;5.57;3.42;;;;;;;22.08;54.03;101259.88;5031752;28;20037;-62
2021/09/26 02:54:50;;;;;;;5.30;3.50;;;;;;;22.10;54.13;101263.22;5031385;28;20102;-62
2021/09/26 02:57:16;;;;;;;6.97;3.83;;;;;;;22.10;54.01;101259.72;5031816;28;20025;-63
2021/09/26 02:59:41;;;;;;;6.15;3.50;;;;;;;22.09;54.10;101258.03;5032321;28;20075;-63
2021/09/26 03:02:07;;;;;;;6.90;3.67;;;;;;;22.08;54.03;101262.53;5031847;28;20017;-62
2021/09/26 03:04:40;;;;;;;5.97;3.60;;;;;;;22.08;53.86;101262.53;5031308;28;20041;-62
2021/09/26 03:07:08;;;;;;;5.75;3.60;;;;;;;22.08;53.97;101262.53;5031794;28;20025;-63
2021/09/26 03:09:33;;;;;;;5.53;3.30;;;;;;;22.09;54.09;101255.38;5031700;28;20029;-62
2021/09/26 03:11:58;;;;;;;6.50;4.37;;;;;;;22.08;53.95;101251.91;5031161;28;20040;-63
2021/09/26 03:14:24;;;;;;;6.95;3.88;;;;;;;22.07;53.88;101258.19;5031987;28;20342;-62
2021/09/26 03:16:50;;;;;;;5.30;3.23;;;;;;;22.07;53.94;101260.84;5031258;28;20041;-62
2021/09/26 03:19:15;;;;;;;6.47;3.40;;;;;;;22.06;54.25;101261.84;5031324;28;20790;-61
2021/09/26 03:21:41;;;;;;;7.75;3.65;;;;;;;22.06;54.10;101261.84;5031459;28;20038;-63
2021/09/26 03:24:06;;;;;;;6.43;3.75;;;;;;;22.06;53.96;101259.19;5033968;28;20033;-63
2021/09/26 03:26:32;;;;;;;5.57;3.60;;;;;;;22.06;54.02;101256.53;5035763;28;20021;-63
2021/09/26 03:28:57;;;;;;;6.00;3.45;;;;;;;22.06;53.83;101259.19;5035157;28;20429;-62
2021/09/26 03:31:24;;;;;;;7.03;3.47;;;;;;;22.05;54.19;101254.84;5035692;28;20025;-63
2021/09/26 03:33:49;;;;;;;6.68;4.00;;;;;;;22.06;54.04;101259.19;5035089;28;20287;-62
2021/09/26 03:36:14;;;;;;;5.70;3.58;;;;;;;22.07;53.89;101265.31;5035297;28;20036;-62
2021/09/26 03:38:39;;;;;;;6.32;3.55;;;;;;;22.06;54.09;101264.50;5035874;28;20034;-63
2021/09/26 03:41:05;;;;;;;6.60;3.80;;;;;;;22.05;54.12;101262.81;5034569;28;20115;-62
2021/09/26 03:43:30;;;;;;;6.03;3.60;;;;;;;22.07;53.89;101254.69;5035235;28;20033;-62
2021/09/26 03:45:59;;;;;;;6.18;3.72;;;;;;;22.07;54.17;101250.22;5035209;28;20056;-61
2021/09/26 03:48:24;;;;;;;5.35;3.42;;;;;;;22.07;54.09;101247.56;5034974;28;20507;-61
2021/09/26 03:50:51;;;;;;;7.10;3.53;;;;;;;22.07;53.98;101250.22;5034954;28;20124;-61
2021/09/26 03:53:18;;;;;;;5.35;3.47;;;;;;;22.06;54.02;101240.59;5035256;28;20476;-62
2021/09/26 03:55:43;;;;;;;7.13;3.88;;;;;;;22.06;53.91;101245.91;5035266;28;20040;-62
2021/09/26 03:58:09;;;;;;;5.55;3.63;;;;;;;22.06;54.32;101243.25;5034397;28;20038;-62
2021/09/26 04:00:35;;;;;;;6.00;3.45;;;;;;;22.05;54.04;101244.22;5034650;28;20074;-62
2021/09/26 04:03:00;;;;;;;7.00;3.65;;;;;;;22.06;54.31;101250.34;5034678;28;20017;-62
2021/09/26 04:05:26;;;;;;;6.80;3.85;;;;;;;22.06;54.29;101248.56;5034953;28;20389;-61
2021/09/26 04:07:54;;;;;;;5.68;3.45;;;;;;;22.05;54.22;101246.88;5034298;28;20385;-62
2021/09/26 04:10:20;;;;;;;5.93;3.47;;;;;;;22.06;54.13;101240.59;5035260;28;20070;-63
2021/09/26 04:12:45;;;;;;;6.55;3.67;;;;;;;22.07;54.18;101252.88;5035026;28;20457;-62
2021/09/26 04:15:12;;;;;;;7.00;3.35;;;;;;;22.06;54.24;101250.34;5034275;28;20026;-62
2021/09/26 04:17:46;;;;;;;5.93;3.50;;;;;;;22.05;54.23;101243.41;5034838;28;20541;-63
2021/09/26 04:20:12;;;;;;;6.72;3.80;;;;;;;22.05;54.12;101241.56;5034414;28;20029;-62
2021/09/26 04:22:37;;;;;;;6.28;3.72;;;;;;;22.05;54.33;101241.56;5034510;28;20036;-62
2021/09/26 04:25:04;;;;;;;6.63;3.50;;;;;;;22.05;54.31;101243.41;5034226;28;20488;-62
2021/09/26 04:27:29;;;;;;;5.70;3.38;;;;;;;22.04;54.10;101239.88;5034653;28;20037;-62
2021/09/26 04:29:54;;;;;;;5.53;3.50;;;;;;;22.05;54.25;101243.41;5033803;28;20091;-62
2021/09/26 04:32:20;;;;;;;5.87;3.47;;;;;;;22.04;54.50;101239.88;5034471;28;20473;-61
2021/09/26 04:34:46;;;;;;;5.80;3.47;;;;;;;22.04;54.40;101241.72;5034493;28;20335;-62
2021/09/26 04:37:11;;;;;;;6.07;3.47;;;;;;;22.03;54.51;101246.19;5033971;28;20176;-63
2021/09/26 04:39:37;;;;;;;6.15;3.58;;;;;;;22.03;54.40;101238.22;5034674;28;20445;-61
2021/09/26 04:42:02;;;;;;;6.55;3.65;;;;;;;22.02;54.51;101239.19;5034285;28;20060;-62
2021/09/26 04:44:28;;;;;;;6.30;3.95;;;;;;;22.02;54.37;101239.19;5034029;28;20029;-62
2021/09/26 04:46:53;;;;;;;5.32;3.00;;;;;;;22.02;54.35;101241.84;5033851;28;20021;-63
2021/09/26 04:49:19;;;;;;;6.47;3.40;;;;;;;22.02;54.33;101244.50;5034341;28;20045;-63
2021/09/26 04:51:45;;;;;;;5.97;3.30;;;;;;;22.01;54.56;101245.47;5034000;28;20033;-62
2021/09/26 04:54:10;;;;;;;5.53;3.45;;;;;;;22.02;54.37;101244.50;5033930;28;20026;-62
2021/09/26 04:56:35;;;;;;;6.28;3.55;;;;;;;22.01;54.49;101242.81;5034332;28;20038;-63
2021/09/26 04:59:01;;;;;;;5.00;3.38;;;;;;;22.03;54.44;101245.34;5033477;28;20087;-62
2021/09/26 05:01:26;;;;;;;5.05;3.17;;;;;;;22.01;54.46;101242.81;5034026;28;20120;-64
2021/09/26 05:03:55;;;;;;;5.57;3.42;;;;;;;22.02;54.54;101243.69;5033195;28;20072;-65
2021/09/26 05:06:20;;;;;;;5.00;3.15;;;;;;;22.03;54.32;101243.53;5034233;28;20037;-62
2021/09/26 05:08:46;;;;;;;6.03;3.45;;;;;;;22.04;54.20;101249.69;5033950;28;20370;-62
2021/09/26 05:11:11;;;;;;;5.68;3.30;;;;;;;22.03;54.50;101248.84;5033335;28;20032;-62
2021/09/26 05:13:37;;;;;;;5.18;3.33;;;;;;;22.03;54.46;101247.97;5033927;28;20428;-61
2021/09/26 05:16:02;;;;;;;5.13;3.47;;;;;;;22.03;54.52;101256.81;5033403;28;20026;-62
2021/09/26 05:18:27;;;;;;;6.68;3.70;;;;;;;22.04;54.56;101247.84;5032982;28;20033;-62
2021/09/26 05:20:54;;;;;;;6.57;3.40;;;;;;;22.02;54.50;101247.16;5033622;28;20032;-62
2021/09/26 05:23:22;;;;;;;5.32;3.40;;;;;;;22.03;54.45;101255.94;5033537;28;20378;-62
2021/09/26 05:25:50;;;;;;;4.82;2.90;;;;;;;22.04;54.41;101254.97;5032808;28;20044;-62
2021/09/26 05:28:15;;;;;;;5.60;3.20;;;;;;;22.03;54.54;101253.28;5033385;28;20056;-62
2021/09/26 05:30:41;;;;;;;5.90;3.30;;;;;;;22.01;54.67;101250.78;5033422;28;20030;-62
2021/09/26 05:33:07;;;;;;;6.28;3.50;;;;;;;22.01;54.68;101256.09;5032445;28;20025;-62
2021/09/26 05:35:32;;;;;;;6.55;3.50;;;;;;;22.03;54.47;101245.34;5033235;28;20435;-62
2021/09/26 05:37:58;;;;;;;5.10;3.80;;;;;;;22.03;54.58;101254.16;5033182;28;20445;-63
2021/09/26 05:40:24;;;;;;;5.78;3.13;;;;;;;22.03;54.61;101262.13;5032949;28;20029;-63
2021/09/26 05:42:49;;;;;;;6.38;3.50;;;;;;;22.02;54.58;101256.94;5032756;28;20030;-62
2021/09/26 05:45:15;;;;;;;5.72;3.60;;;;;;;22.02;54.54;101263.09;5033348;28;20068;-63
2021/09/26 05:47:40;;;;;;;5.50;3.33;;;;;;;22.02;54.40;101265.72;5032212;28;20025;-63
2021/09/26 05:50:11;;;;;;;5.30;3.33;;;;;;;22.01;54.56;101261.41;5032766;28;20030;-63
2021/09/26 05:52:37;;;;;;;5.97;3.47;;;;;;;22.00;54.55;101257.09;5033029;28;20294;-63
2021/09/26 05:55:04;;;;;;;5.95;3.45;;;;;;;22.00;54.61;101253.56;5032316;28;20053;-63
2021/09/26 05:57:29;;;;;;;6.97;3.65;;;;;;;22.00;54.56;101250.91;5032711;28;20120;-62
2021/09/26 05:59:54;;;;;;;6.25;4.00;;;;;;;22.00;54.89;101254.44;5032474;28;20080;-62
2021/09/26 06:02:23;;;;;;;5.63;3.60;;;;;;;22.00;54.62;101251.78;5032689;28;20052;-63
2021/09/26 06:04:49;;;;;;;7.05;3.75;;;;;;;22.00;54.42;101253.56;5032219;28;20293;-63
2021/09/26 06:07:15;;;;;;;6.10;3.42;;;;;;;21.99;54.67;101258.06;5032464;28;20082;-62
2021/09/26 06:09:41;;;;;;;5.68;3.63;;;;;;;22.01;54.63;101260.56;5032903;28;20104;-62
2021/09/26 06:12:07;;;;;;;6.38;3.95;;;;;;;21.99;54.53;101263.34;5032335;28;20021;-62
2021/09/26 06:14:32;;;;;;;5.00;3.30;;;;;;;21.99;54.76;101267.84;5032130;28;20389;-62
2021/09/26 06:16:57;;;;;;;6.45;3.80;;;;;;;22.00;54.39;101269.50;5032267;28;20128;-62
2021/09/26 06:19:22;;;;;;;5.88;3.60;;;;;;;22.00;54.57;101261.53;5032451;28;20044;-63
2021/09/26 06:21:48;;;;;;;6.53;3.60;;;;;;;21.99;54.46;101260.72;5031715;28;20044;-62
2021/09/26 06:24:16;;;;;;;6.20;3.80;;;;;;;21.98;54.58;101261.66;5032456;28;20022;-63
2021/09/26 06:26:41;;;;;;;6.00;3.65;;;;;;;21.98;54.58;101264.31;5032541;28;20051;-63
2021/09/26 06:29:07;;;;;;;5.50;3.55;;;;;;;22.00;54.40;101267.69;5031699;28;20041;-62
2021/09/26 06:31:33;;;;;;;5.80;3.58;;;;;;;22.00;54.48;101266.84;5032320;28;20080;-63
2021/09/26 06:33:58;;;;;;;6.20;3.55;;;;;;;21.99;54.57;101265.19;5032169;28;20090;-63
2021/09/26 06:36:23;;;;;;;5.45;3.53;;;;;;;22.00;54.70;101272.16;5031901;28;20041;-62
2021/09/26 06:38:48;;;;;;;4.85;3.20;;;;;;;22.01;54.45;101281.78;5031909;28;20021;-62
2021/09/26 06:41:15;;;;;;;5.05;3.08;;;;;;;22.00;54.68;101277.47;5032404;28;20033;-63
2021/09/26 06:43:41;;;;;;;5.97;3.35;;;;;;;21.99;54.71;101279.28;5031846;28;20036;-63
2021/09/26 06:46:06;;;;;;;5.50;3.15;;;;;;;22.00;54.67;101285.41;5031658;28;20029;-61
2021/09/26 06:48:34;;;;;;;5.55;3.35;;;;;;;21.96;54.82;101287.53;5032336;28;20026;-63
2021/09/26 06:51:00;;;;;;;6.40;3.60;;;;;;;21.90;54.93;101274.81;5031707;28;20376;-63
2021/09/26 06:53:25;;;;;;;5.78;3.53;;;;;;;21.89;54.94;101281.94;5032061;28;20022;-63
2021/09/26 06:55:50;;;;;;;5.13;3.72;;;;;;;21.90;55.13;101282.75;5032063;28;20033;-64
2021/09/26 06:58:16;;;;;;;6.38;3.90;;;;;;;21.87;56.13;101283.03;5032774;28;20048;-63
2021/09/26 07:00:44;;;;;;;6.27;4.00;;;;;;;21.87;55.76;101291.00;5036097;28;20052;-62
2021/09/26 07:03:10;;;;;;;6.45;3.78;;;;;;;21.89;55.58;101305.81;5027696;28;20779;-69
2021/09/26 07:05:35;;;;;;;7.38;3.80;;;;;;;21.95;55.72;101298.28;5015472;28;20022;-65
2021/09/26 07:08:00;;;;;;;5.70;3.67;;;;;;;22.02;55.55;101294.94;5014188;28;20029;-66
2021/09/26 07:10:25;;;;;;;6.63;3.60;;;;;;;22.06;55.47;101299.00;5014510;28;20034;-67
2021/09/26 07:12:51;;;;;;;7.72;3.80;;;;;;;22.09;55.58;101298.69;5014290;28;20362;-66
2021/09/26 07:15:16;;;;;;;7.68;3.90;;;;;;;22.13;55.42;101296.59;5014416;28;20041;-63
2021/09/26 07:17:41;;;;;;;5.93;3.47;;;;;;;22.16;55.57;101298.13;5013863;28;20421;-62
2021/09/26 07:20:07;;;;;;;5.22;3.70;;;;;;;22.19;55.48;101300.50;5013769;28;20026;-64
2021/09/26 07:22:32;;;;;;;6.07;3.50;;;;;;;22.25;55.07;101299.94;5013773;28;20033;-64
2021/09/26 07:24:58;;;;;;;5.75;3.55;;;;;;;22.28;55.16;101310.28;5013089;28;20045;-64
2021/09/26 07:27:24;;;;;;;5.47;3.50;;;;;;;22.30;55.20;101311.00;5013264;28;20034;-66
2021/09/26 07:29:51;;;;;;;5.60;3.80;;;;;;;22.31;55.17;101307.38;5013195;28;20586;-65
2021/09/26 07:32:16;;;;;;;6.07;3.50;;;;;;;22.35;54.78;101314.09;5013102;28;20042;-65
2021/09/26 07:34:43;;;;;;;5.88;3.53;;;;;;;22.39;55.16;101323.44;5014414;28;20018;-63
2021/09/26 07:37:08;;;;;;;6.32;3.63;;;;;;;22.41;55.21;101318.84;5013108;28;20037;-64
2021/09/26 07:39:34;;;;;;;5.50;3.50;;;;;;;22.43;55.20;101324.00;5014035;28;20030;-64
2021/09/26 07:41:59;;;;;;;6.55;4.00;;;;;;;22.45;55.29;101319.41;5012925;28;20030;-69
2021/09/26 07:44:25;;;;;;;5.80;3.50;;;;;;;22.49;55.13;101318.13;5013393;28;20163;-65
2021/09/26 07:46:50;;;;;;;5.32;3.17;;;;;;;22.51;54.94;101325.94;5013644;28;20437;-70
2021/09/26 07:49:16;;;;;;;5.32;3.40;;;;;;;22.55;55.04;101330.81;5012956;28;20108;-69
2021/09/26 07:51:41;;;;;;;6.65;3.85;;;;;;;22.56;54.68;101324.53;5014035;28;20069;-69
2021/09/26 07:54:10;;;;;;;5.13;3.28;;;;;;;22.58;54.61;101321.75;5012062;28;20429;-65
2021/09/26 07:56:35;;;;;;;5.55;3.80;;;;;;;22.57;55.80;101320.91;5012712;28;20109;-67
2021/09/26 07:59:00;;;;;;;6.23;3.67;;;;;;;22.56;55.58;101313.91;5013451;28;20133;-67
2021/09/26 08:01:25;;;;;;;4.97;3.03;;;;;;;22.53;55.56;101316.84;5012998;28;20315;-63
2021/09/26 08:03:51;;;;;;;6.17;3.67;;;;;;;22.54;55.59;101328.31;5015374;28;20353;-65
2021/09/26 08:06:18;;;;;;;5.72;4.00;;;;;;;22.56;55.58;101324.53;5013471;28;20730;-64
2021/09/26 08:08:44;;;;;;;6.10;3.90;;;;;;;22.59;55.67;101326.91;5012295;28;20034;-68
2021/09/26 08:11:09;;;;;;;7.15;3.85;;;;;;;22.60;55.73;101323.25;5014050;28;20469;-70
2021/09/26 08:13:37;;;;;;;5.50;3.65;;;;;;;22.64;55.63;101329.16;5013462;28;20070;-65
2021/09/26 08:16:03;;;;;;;5.38;3.90;;;;;;;22.64;55.75;101329.16;5013733;28;20128;-66
2021/09/26 08:18:28;;;;;;;6.63;3.45;;;;;;;22.66;55.94;101324.53;5013224;28;20140;-65
2021/09/26 08:20:54;;;;;;;6.18;3.97;;;;;;;22.70;55.87;101335.69;5012693;28;20033;-68
2021/09/26 08:23:19;;;;;;;5.53;3.80;;;;;;;22.70;55.96;101339.22;5013967;28;20045;-68
2021/09/26 08:25:45;;;;;;;6.07;4.03;;;;;;;22.71;55.75;101342.69;5013595;28;20033;-66
2021/09/26 08:28:11;;;;;;;5.90;3.70;;;;;;;22.70;55.80;101336.56;5012875;28;20026;-69
2021/09/26 08:30:38;;;;;;;5.30;3.90;;;;;;;22.70;55.90;101344.53;5013439;28;20121;-64
2021/09/26 08:33:03;;;;;;;6.78;4.10;;;;;;;22.72;56.24;101358.50;5013011;28;20029;-64
2021/09/26 08:35:29;;;;;;;6.63;3.88;;;;;;;22.72;55.98;101353.19;5012257;28;20429;-65
2021/09/26 08:37:56;;;;;;;6.82;3.83;;;;;;;22.75;56.09;101357.38;5012449;28;20058;-65
2021/09/26 08:40:21;;;;;;;6.13;3.83;;;;;;;22.75;56.17;101355.56;5012934;28;20084;-69
2021/09/26 08:42:48;;;;;;;6.28;4.38;;;;;;;22.76;55.93;101354.56;5012107;28;20025;-65
2021/09/26 08:45:17;;;;;;;7.13;4.03;;;;;;;22.77;55.93;101356.25;5012577;28;20039;-66
2021/09/26 08:47:43;;;;;;;5.95;3.63;;;;;;;22.79;55.70;101359.59;5012965;28;20474;-67
2021/09/26 08:50:11;;;;;;;6.88;3.40;;;;;;;22.80;55.70;101363.91;5012622;28;20109;-66
2021/09/26 08:52:37;;;;;;;5.95;3.42;;;;;;;22.82;55.37;101366.44;5012521;28;20038;-67
2021/09/26 08:55:04;;;;;;;7.38;3.80;;;;;;;22.82;55.71;101356.63;5011535;28;20021;-68
2021/09/26 08:57:29;;;;;;;5.25;3.50;;;;;;;22.85;55.69;101358.19;5011211;28;20026;-66
2021/09/26 08:59:57;;;;;;;5.70;3.60;;;;;;;22.86;55.48;101361.66;5012990;28;20033;-67
2021/09/26 09:02:23;;;;;;;5.43;3.45;;;;;;;22.88;55.49;101373.00;5012449;28;20381;-64
2021/09/26 09:04:48;;;;;;;5.65;3.47;;;;;;;22.87;55.73;101371.31;5011317;28;20046;-68
2021/09/26 09:07:13;;;;;;;6.72;4.00;;;;;;;22.88;55.54;101371.19;5012829;28;20124;-68
2021/09/26 09:10:00;;;;;;;5.57;3.40;;;;;;;22.90;55.49;101374.53;5011533;28;20060;-65
2021/09/26 09:12:34;;;;;;;5.88;4.10;;;;;;;22.92;55.10;101380.56;5012449;28;20422;-65
2021/09/26 09:15:04;;;;;;;;;;;;;;;22.95;55.37;101380.25;5012666;28;20072;-65
2021/09/26 09:17:32;;;;;;;5.00;3.47;;;;;;;22.96;55.04;101384.59;5011731;28;19917;-65
2021/09/26 09:20:13;;;;;;;6.55;3.72;;;;;;;22.97;54.99;101386.28;5011592;28;20030;-64
2021/09/26 09:22:41;;;;;;;7.00;3.58;;;;;;;22.98;55.08;101389.75;5011308;28;20112;-65
2021/09/26 09:25:07;;;;;;;6.10;3.58;;;;;;;22.97;55.20;101394.25;5011238;28;20620;-64
2021/09/26 09:27:32;;;;;;;6.13;4.50;;;;;;;22.97;55.19;101390.72;5011730;28;20034;-66
2021/09/26 09:29:57;;;;;;;7.85;3.67;;;;;;;22.97;55.14;101394.25;5011917;28;20088;-66
2021/09/26 09:32:23;;;;;;;6.03;3.80;;;;;;;22.97;55.53;101396.03;5011640;28;20041;-66
2021/09/26 09:34:49;;;;;;;5.47;3.97;;;;;;;22.98;55.41;101397.72;5011476;28;20426;-66
2021/09/26 09:37:14;;;;;;;5.95;3.60;;;;;;;22.97;55.08;101394.25;5011739;28;20049;-65
2021/09/26 09:39:42;;;;;;;5.30;3.67;;;;;;;22.97;55.16;101393.38;5011508;28;20079;-67
2021/09/26 09:42:21;;;;;;;5.95;3.50;;;;;;;22.99;54.98;101388.78;5011271;28;20422;-73
2021/09/26 09:44:47;;;;;;;5.80;3.33;;;;;;;22.99;55.14;101386.97;5011592;28;20033;-65
2021/09/26 09:47:12;;;;;;;6.22;3.60;;;;;;;23.01;54.72;101390.31;5010726;28;20063;-64
2021/09/26 09:49:51;;;;;;;4.88;3.13;;;;;;;23.01;54.78;101381.50;5011713;28;20392;-72
2021/09/26 09:52:17;;;;;;;6.03;3.53;;;;;;;23.01;54.66;101377.00;5011161;28;20075;-69
2021/09/26 09:54:42;;;;;;;5.30;3.30;;;;;;;23.04;54.84;101385.72;5011850;28;20108;-74
2021/09/26 09:57:19;;;;;;;5.93;3.70;;;;;;;23.06;54.81;101394.38;5011307;28;20295;-68
2021/09/26 09:59:47;;;;;;;5.47;3.13;;;;;;;23.05;54.68;101388.22;5010639;28;20199;-66
2021/09/26 10:02:13;;;;;;;7.18;3.50;;;;;;;23.05;55.24;101390.03;5011580;28;20033;-68
2021/09/26 10:04:44;;;;;;;5.40;3.45;;;;;;;23.05;54.84;101390.88;5010784;28;20383;-69
2021/09/26 10:07:30;;;;;;;6.25;3.47;;;;;;;23.06;54.71;101397.03;5010080;28;20470;-69
2021/09/26 10:09:59;;;;;;;5.05;3.22;;;;;;;23.07;54.70;101390.72;5009961;28;20554;-65
2021/09/26 10:12:27;;;;;;;5.68;3.50;;;;;;;23.06;54.99;101389.88;5011649;28;20436;-69
2021/09/26 10:15:00;;;;;;;5.55;3.40;;;;;;;23.06;55.07;101395.19;5010564;28;20046;-64
2021/09/26 10:17:26;;;;;;;5.25;3.42;;;;;;;23.07;55.06;101401.38;5011194;28;20072;-63
2021/09/26 10:19:52;;;;;;;5.55;3.53;;;;;;;23.09;54.86;101396.78;5010235;28;20041;-62
2021/09/26 10:22:19;;;;;;;5.38;3.80;;;;;;;23.09;54.88;101400.25;5010769;28;20026;-62
2021/09/26 10:24:51;;;;;;;4.90;3.33;;;;;;;23.11;54.72;101402.78;5009655;28;20413;-62
2021/09/26 10:27:23;;;;;;;5.28;3.10;;;;;;;23.11;54.53;101406.25;5010294;28;20053;-65
2021/09/26 10:29:53;;;;;;;6.20;3.40;;;;;;;23.11;54.83;101402.78;5011634;28;20104;-64
2021/09/26 10:32:20;;;;;;;5.97;3.30;;;;;;;23.12;55.08;101415.91;5010390;28;20057;-64
2021/09/26 10:34:45;;;;;;;6.15;3.72;;;;;;;23.13;54.72;101412.28;5010271;28;20033;-70
2021/09/26 10:37:13;;;;;;;5.47;3.90;;;;;;;23.10;54.79;101417.91;5009537;28;20034;-70
2021/09/26 10:39:42;;;;;;;4.55;3.33;;;;;;;23.09;54.57;101418.03;5011241;28;20034;-71
2021/09/26 10:42:16;;;;;;;5.28;3.33;;;;;;;23.07;55.09;101406.69;5010928;28;20100;-73
2021/09/26 10:44:53;;;;;;;5.97;3.47;;;;;;;23.05;54.96;101406.81;5010275;28;20026;-64
2021/09/26 10:47:29;;;;;;;5.07;3.50;;;;;;;23.04;55.40;101406.97;5024139;28;20088;-66
2021/09/26 10:49:57;;;;;;;5.70;3.83;;;;;;;23.06;55.04;101410.31;5029969;28;20492;-65
2021/09/26 10:52:37;;;;;;;7.15;3.97;;;;;;;23.08;55.05;101413.69;5030106;28;20053;-64
2021/09/26 10:55:15;;;;;;;5.95;3.75;;;;;;;23.09;54.92;101416.19;5031213;28;20045;-65
2021/09/26 10:58:01;;;;;;;6.80;3.95;;;;;;;23.13;54.76;101411.44;5029648;28;20029;-63
2021/09/26 11:00:28;;;;;;;5.60;3.63;;;;;;;23.14;54.98;101405.97;5029908;28;20091;-73
2021/09/26 11:02:54;;;;;;;6.13;3.85;;;;;;;23.16;54.77;101412.00;5029246;28;20045;-70
2021/09/26 11:05:30;;;;;;;6.32;3.60;;;;;;;23.18;54.55;101410.03;5029263;28;20386;-68
2021/09/26 11:07:56;;;;;;;7.13;3.80;;;;;;;23.18;54.61;101410.03;5030759;28;20512;-67
2021/09/26 11:10:35;;;;;;;5.60;3.90;;;;;;;23.20;54.59;101409.06;5032673;28;20377;-69
2021/09/26 11:13:10;;;;;;;6.00;3.70;;;;;;;23.20;54.64;101417.84;5029947;28;20024;-67
2021/09/26 11:15:58;;;;;;;7.45;3.67;;;;;;;23.22;54.10;101421.19;5028979;28;20025;-66
2021/09/26 11:18:54;;;;;;;6.15;3.45;;;;;;;23.22;54.72;101415.88;5029479;28;20051;-70
2021/09/26 11:21:37;;;;;;;6.47;3.65;;;;;;;23.23;54.89;101414.09;5030161;28;20033;-68
2021/09/26 11:24:18;;;;;;;5.87;3.93;;;;;;;23.23;55.27;101416.75;5029378;28;20155;-72
2021/09/26 11:27:01;;;;;;;6.55;3.90;;;;;;;23.22;55.21;101413.22;5029155;28;20144;-70
2021/09/26 11:29:51;;;;;;;9.00;4.03;;;;;;;23.23;55.45;101414.09;5030190;28;20025;-69